createdAt,value
2022-11-22T00:00:20.512Z,47.40
2022-11-22T00:02:49.894Z,52.00
2022-11-22T00:05:19.893Z,53.00
2022-11-22T00:07:49.164Z,52.80
2022-11-22T00:10:18.970Z,51.10
2022-11-22T00:12:48.283Z,53.40
2022-11-22T00:15:17.767Z,57.00
2022-11-22T00:17:47.354Z,48.20
2022-11-22T00:20:19.857Z,55.10
2022-11-22T00:22:49.653Z,53.90
2022-11-22T00:25:19.147Z,53.70
2022-11-22T00:27:48.392Z,52.50
2022-11-22T00:30:18.295Z,51.90
2022-11-22T00:32:47.751Z,57.30
2022-11-22T00:35:17.475Z,52.80
2022-11-22T00:37:47.036Z,52.90
2022-11-22T00:40:18.084Z,52.90
2022-11-22T00:42:47.694Z,52.60
2022-11-22T00:45:17.335Z,55.90
2022-11-22T00:47:46.944Z,50.70
2022-11-22T00:50:17.024Z,53.10
2022-11-22T00:52:46.885Z,53.50
2022-11-22T00:55:16.387Z,56.10
2022-11-22T00:57:49.066Z,56.20
2022-11-22T01:00:19.826Z,51.60
2022-11-22T01:02:49.167Z,54.50
2022-11-22T01:05:19.784Z,59.20
2022-11-22T01:07:49.405Z,56.30
2022-11-22T01:10:19.166Z,60.10
2022-11-22T01:12:48.762Z,57.90
2022-11-22T01:15:19.403Z,63.00
2022-11-22T01:17:49.132Z,61.50
2022-11-22T01:20:19.563Z,60.40
2022-11-22T01:22:49.156Z,55.50
2022-11-22T01:25:18.987Z,57.20
2022-11-22T01:27:50.617Z,55.30
2022-11-22T01:30:34.956Z,62.10
2022-11-22T01:33:04.783Z,66.00
2022-11-22T01:35:54.465Z,59.90
2022-11-22T01:38:24.106Z,68.50
2022-11-22T01:40:53.572Z,61.10
2022-11-22T01:43:25.306Z,62.90
2022-11-22T01:45:56.036Z,68.20
2022-11-22T01:48:38.264Z,62.20
2022-11-22T01:51:15.519Z,58.80
2022-11-22T01:53:45.465Z,64.90
2022-11-22T01:56:19.835Z,62.10
2022-11-22T01:58:56.586Z,61.50
2022-11-22T05:41:55.593Z,53.70
2022-11-22T05:44:26.698Z,59.20
2022-11-22T05:46:56.560Z,60.80
2022-11-22T05:49:27.049Z,56.60
2022-11-22T05:51:57.021Z,51.20
2022-11-22T05:54:27.226Z,57.50
2022-11-22T05:56:57.270Z,54.00
2022-11-22T05:59:27.896Z,54.30
2022-11-22T06:01:58.284Z,53.00
2022-11-22T06:04:28.263Z,48.60
2022-11-22T06:06:58.301Z,54.50
2022-11-22T06:09:29.047Z,56.00
2022-11-22T06:11:59.323Z,60.20
2022-11-22T06:14:29.380Z,51.70
2022-11-22T06:16:59.311Z,58.60
2022-11-22T06:19:29.336Z,55.00
2022-11-22T06:21:59.500Z,62.30
2022-11-22T06:24:29.450Z,59.90
2022-11-22T06:26:59.421Z,59.20
2022-11-22T06:29:32.453Z,59.80
2022-11-22T06:32:03.949Z,60.10
2022-11-22T06:34:34.591Z,58.90
2022-11-22T06:37:05.561Z,60.50
2022-11-22T06:39:36.049Z,55.60
2022-11-22T06:42:06.539Z,53.30
2022-11-22T06:44:37.081Z,58.90
2022-11-22T06:47:07.982Z,56.30
2022-11-22T06:49:38.452Z,51.50
2022-11-22T06:52:08.479Z,50.20
2022-11-22T06:54:38.634Z,48.80
2022-11-22T06:57:08.462Z,48.10
2022-11-22T06:59:41.870Z,49.30
2022-11-22T07:02:13.579Z,50.50
2022-11-22T07:05:09.455Z,52.50
2022-11-22T07:07:33.849Z,55.20
2022-11-22T07:10:04.451Z,40.10
2022-11-22T07:12:34.371Z,41.90
2022-11-22T07:15:04.885Z,38.30
2022-11-22T07:17:34.910Z,42.90
2022-11-22T07:20:06.761Z,38.80
2022-11-22T07:22:36.821Z,37.50
2022-11-22T07:25:08.731Z,35.80
2022-11-22T07:27:38.677Z,34.70
2022-11-22T07:30:11.664Z,35.90
2022-11-22T07:32:41.680Z,24.30
2022-11-22T07:35:13.032Z,35.40
2022-11-22T07:37:43.263Z,33.20
2022-11-22T07:40:14.712Z,34.20
2022-11-22T07:42:44.692Z,33.90
2022-11-22T07:45:14.881Z,29.60
2022-11-22T07:47:44.812Z,33.60
2022-11-22T07:50:15.264Z,38.90
2022-11-22T07:52:45.296Z,29.60
2022-11-22T07:55:15.572Z,27.00
2022-11-22T07:57:45.828Z,33.00
2022-11-22T08:00:17.180Z,31.50
2022-11-22T08:02:47.219Z,36.40
2022-11-22T08:05:18.139Z,29.40
2022-11-22T08:07:49.219Z,36.00
2022-11-22T08:10:20.222Z,39.10
2022-11-22T08:12:50.138Z,32.80
2022-11-22T08:15:20.310Z,33.60
2022-11-22T08:17:50.210Z,38.30
2022-11-22T08:20:20.172Z,24.10
2022-11-22T08:22:50.020Z,30.30
2022-11-22T08:25:20.018Z,29.00
2022-11-22T08:27:50.073Z,31.10
2022-11-22T08:30:20.610Z,27.30
2022-11-22T08:32:51.441Z,29.60
2022-11-22T08:35:27.867Z,31.40
2022-11-22T08:37:59.341Z,58.40
2022-11-22T08:40:29.539Z,86.40
2022-11-22T08:42:59.470Z,36.60
2022-11-22T08:45:31.080Z,31.90
2022-11-22T08:48:01.182Z,31.20
2022-11-22T08:50:31.201Z,33.80
2022-11-22T08:53:03.141Z,29.50
2022-11-22T08:55:34.922Z,31.40
2022-11-22T08:58:04.787Z,38.20
2022-11-22T09:00:35.020Z,43.00
2022-11-22T09:03:05.409Z,41.70
2022-11-22T09:05:36.194Z,35.80
2022-11-22T09:08:22.469Z,53.80
2022-11-22T09:10:52.546Z,38.20
2022-11-22T09:13:22.537Z,44.80
2022-11-22T09:15:52.600Z,55.40
2022-11-22T09:18:25.317Z,75.50
2022-11-22T09:21:00.293Z,54.10
2022-11-22T09:23:30.651Z,102.30
2022-11-22T09:26:01.841Z,87.10
2022-11-22T09:28:31.914Z,74.00
2022-11-22T09:31:03.201Z,105.10
2022-11-22T09:33:34.771Z,168.30
2022-11-22T09:36:06.779Z,111.80
2022-11-22T09:38:38.000Z,98.90
2022-11-22T09:41:21.570Z,91.60
2022-11-22T09:44:01.532Z,41.00
2022-11-22T09:46:41.312Z,58.30
2022-11-22T09:49:34.379Z,84.30
2022-11-22T09:52:08.739Z,110.00
2022-11-22T09:54:44.941Z,112.50
2022-11-22T09:57:20.252Z,118.30
2022-11-22T09:59:55.399Z,132.00
2022-11-22T10:02:31.424Z,160.40
2022-11-22T10:05:14.121Z,171.90
2022-11-22T10:07:48.767Z,221.20
2022-11-22T10:10:23.271Z,118.40
2022-11-22T10:12:59.920Z,86.60
2022-11-22T10:15:37.681Z,98.60
2022-11-22T10:18:18.466Z,110.90
2022-11-22T10:20:49.212Z,81.00
2022-11-22T10:23:21.881Z,137.50
2022-11-22T10:25:58.281Z,106.20
2022-11-22T10:28:35.259Z,124.80
2022-11-22T10:31:18.652Z,134.80
2022-11-22T10:34:01.090Z,88.00
2022-11-22T10:36:39.412Z,113.40
2022-11-22T10:39:19.870Z,169.20
2022-11-22T10:42:07.390Z,174.30
2022-11-22T10:44:50.411Z,139.70
2022-11-22T10:47:36.602Z,101.00
2022-11-22T10:50:13.193Z,185.50
2022-11-22T10:52:51.595Z,162.40
2022-11-22T10:55:30.380Z,104.10
2022-11-22T10:58:06.784Z,109.20
2022-11-22T11:00:41.293Z,82.10
2022-11-22T11:03:21.660Z,90.90
2022-11-22T11:09:36.091Z,80.60
2022-11-22T11:11:39.492Z,50.00
2022-11-22T11:14:19.687Z,55.30
2022-11-22T11:16:51.774Z,43.60
2022-11-22T11:19:24.738Z,47.70
2022-11-22T11:22:00.783Z,50.00
2022-11-22T11:24:31.507Z,47.80
2022-11-22T11:27:02.331Z,46.60
2022-11-22T11:29:51.560Z,48.80
2022-11-22T11:32:22.630Z,44.30
2022-11-22T11:34:56.210Z,42.70
2022-11-22T11:37:32.820Z,44.90
2022-11-22T11:40:03.120Z,40.60
2022-11-22T11:42:34.643Z,46.60
2022-11-22T11:45:29.144Z,37.30
2022-11-22T11:47:58.981Z,32.10
2022-11-22T11:50:31.062Z,42.40
2022-11-22T11:53:07.295Z,37.60
2022-11-22T11:55:37.876Z,35.40
2022-11-22T11:58:19.990Z,53.50
2022-11-22T12:00:50.675Z,44.20
2022-11-22T12:03:29.853Z,55.60
2022-11-22T12:06:14.613Z,37.60
2022-11-22T12:08:44.572Z,37.00
2022-11-22T12:11:20.250Z,34.90
2022-11-22T12:14:18.985Z,57.90
2022-11-22T12:16:48.799Z,36.80
2022-11-22T12:19:27.888Z,41.70
2022-11-22T12:22:04.460Z,45.20
2022-11-22T12:24:56.957Z,49.00
2022-11-22T12:27:29.811Z,38.30
2022-11-22T12:29:59.961Z,38.80
2022-11-22T12:32:35.742Z,38.80
2022-11-22T12:35:11.981Z,36.40
2022-11-22T12:37:46.691Z,40.70
2022-11-22T12:40:21.681Z,37.90
2022-11-22T12:42:55.131Z,37.60
2022-11-22T12:45:30.292Z,37.00
2022-11-22T12:48:05.092Z,42.40
2022-11-22T12:50:43.022Z,36.10
2022-11-22T12:53:16.121Z,44.00
2022-11-22T12:55:52.221Z,32.70
2022-11-22T12:58:28.027Z,38.50
2022-11-22T13:01:10.540Z,44.60
2022-11-22T13:03:48.091Z,41.60
2022-11-22T13:06:21.774Z,42.40
2022-11-22T13:11:38.050Z,39.20
2022-11-22T13:14:20.588Z,39.10
2022-11-22T13:16:51.920Z,39.60
2022-11-22T13:19:26.107Z,39.80
2022-11-22T13:22:11.440Z,38.90
2022-11-22T13:24:57.341Z,39.20
2022-11-22T13:27:32.101Z,41.50
2022-11-22T13:30:03.630Z,38.60
2022-11-22T13:32:35.762Z,38.90
2022-11-22T13:35:20.751Z,36.60
2022-11-22T13:37:54.280Z,37.30
2022-11-22T13:40:28.230Z,35.20
2022-11-22T13:43:33.490Z,31.60
2022-11-22T13:46:04.722Z,33.90
2022-11-22T13:49:09.973Z,32.50
2022-11-22T13:51:54.943Z,33.00
2022-11-22T13:55:01.081Z,29.50
2022-11-22T13:57:35.272Z,28.70
2022-11-22T14:00:42.469Z,32.60
2022-11-22T14:03:42.533Z,29.60
2022-11-22T14:06:29.039Z,30.70
2022-11-22T14:09:28.479Z,30.90
2022-11-22T14:12:28.312Z,28.40
2022-11-22T14:15:19.155Z,29.00
2022-11-22T14:17:58.921Z,28.00
2022-11-22T14:20:43.531Z,27.40
2022-11-22T14:23:24.007Z,26.60
2022-11-22T14:26:12.111Z,24.80
2022-11-22T14:29:07.131Z,25.90
2022-11-22T14:31:39.101Z,26.60
2022-11-22T14:34:22.603Z,26.80
2022-11-22T14:37:24.220Z,24.20
2022-11-22T14:40:17.630Z,24.60
2022-11-22T14:42:57.460Z,23.60
2022-11-22T14:45:36.761Z,21.80
2022-11-22T14:48:19.796Z,22.70
2022-11-22T14:50:53.079Z,22.40
2022-11-22T14:53:32.041Z,21.40
2022-11-22T14:56:13.300Z,27.50
2022-11-22T14:58:56.472Z,25.30
2022-11-22T15:01:56.111Z,28.90
2022-11-22T15:09:19.464Z,24.30
2022-11-22T15:09:21.956Z,26.80
2022-11-22T15:11:34.047Z,24.00
2022-11-22T15:14:28.244Z,29.30
2022-11-22T15:57:51.522Z,23.80
2022-11-22T16:00:24.031Z,24.80
2022-11-22T16:02:56.830Z,24.50
2022-11-22T16:06:08.849Z,31.10
2022-11-22T16:08:29.343Z,27.10
2022-11-22T16:11:04.861Z,24.80
2022-11-22T16:13:39.859Z,26.80
2022-11-22T16:16:22.230Z,28.00
2022-11-22T16:18:56.131Z,27.00
2022-11-22T16:21:30.010Z,28.80
2022-11-22T16:24:18.750Z,26.50
2022-11-22T16:26:58.204Z,29.10
2022-11-22T16:29:32.879Z,34.10
2022-11-22T16:32:06.180Z,31.70
2022-11-22T16:34:36.421Z,26.80
2022-11-22T16:37:36.220Z,33.50
2022-11-22T16:40:10.219Z,37.40
2022-11-22T16:42:41.082Z,37.40
2022-11-22T16:45:18.821Z,40.00
2022-11-22T16:48:03.623Z,42.30
2022-11-22T16:50:42.811Z,42.90
2022-11-22T16:53:17.421Z,43.80
2022-11-22T16:55:50.896Z,42.20
2022-11-22T16:58:22.960Z,39.90
2022-11-22T17:00:54.482Z,38.90
2022-11-22T17:03:31.669Z,40.70
2022-11-22T17:06:02.030Z,36.40
2022-11-22T17:08:32.112Z,38.30
2022-11-22T17:11:02.260Z,35.70
2022-11-22T17:13:32.890Z,40.30
2022-11-22T17:16:03.485Z,37.70
2022-11-22T17:18:35.600Z,41.80
2022-11-22T17:21:10.837Z,43.70
2022-11-22T17:23:46.141Z,41.90
2022-11-22T17:26:18.372Z,40.90
2022-11-22T17:28:48.477Z,44.10
2022-11-22T17:31:19.903Z,45.20
2022-11-22T17:33:52.430Z,51.20
2022-11-22T17:36:28.090Z,43.50
2022-11-22T17:38:59.430Z,42.50
2022-11-22T17:41:30.221Z,48.00
2022-11-22T17:44:01.462Z,46.40
2022-11-22T17:46:34.350Z,48.10
2022-11-22T17:49:05.249Z,43.50
2022-11-22T17:51:38.341Z,46.50
2022-11-22T17:54:08.940Z,52.10
2022-11-22T17:56:39.629Z,48.90
2022-11-22T17:59:09.540Z,47.70
2022-11-22T18:01:39.500Z,44.50
2022-11-22T18:04:09.410Z,47.40
2022-11-22T18:06:42.030Z,47.20
2022-11-22T18:09:13.850Z,46.10
2022-11-22T18:11:44.397Z,50.30
2022-11-22T18:14:14.741Z,46.80
2022-11-22T18:16:45.952Z,43.90
2022-11-22T18:19:16.113Z,44.80
2022-11-22T18:21:49.349Z,46.20
2022-11-22T18:24:19.140Z,48.20
2022-11-22T18:26:50.960Z,48.10
2022-11-22T18:29:42.237Z,44.60
2022-11-22T18:32:13.984Z,46.30
2022-11-22T18:34:43.993Z,49.60
2022-11-22T18:37:17.010Z,49.00
2022-11-22T18:39:48.281Z,45.70
2022-11-22T18:42:18.528Z,49.70
2022-11-22T18:44:48.260Z,42.90
2022-11-22T18:47:18.114Z,48.70
2022-11-22T18:49:48.360Z,46.90
2022-11-22T18:52:18.382Z,46.90
2022-11-22T18:54:48.911Z,52.20
2022-11-22T18:57:18.902Z,45.80
2022-11-22T18:59:48.702Z,50.20
2022-11-22T19:02:25.339Z,57.30
2022-11-22T19:05:00.431Z,60.60
2022-11-22T19:07:31.273Z,56.90
2022-11-22T19:10:02.694Z,45.00
2022-11-22T19:12:32.868Z,58.40
2022-11-22T19:15:02.860Z,52.10
2022-11-22T19:17:33.224Z,50.80
2022-11-22T19:20:06.734Z,58.20
2022-11-22T19:22:41.539Z,46.80
2022-11-22T19:25:17.467Z,51.80
2022-11-22T19:27:55.583Z,74.50
2022-11-22T19:30:32.132Z,63.90
2022-11-22T19:33:03.098Z,79.00
2022-11-22T19:35:40.579Z,63.70
2022-11-22T19:38:28.822Z,60.50
2022-11-22T19:44:09.365Z,52.10
2022-11-22T19:46:47.952Z,65.90
2022-11-22T19:49:20.170Z,56.10
2022-11-22T19:51:52.120Z,51.60
2022-11-22T19:54:21.951Z,49.40
2022-11-22T19:56:51.790Z,49.80
2022-11-22T19:59:21.663Z,52.80
2022-11-22T20:01:51.780Z,44.40
2022-11-22T20:04:21.713Z,49.10
2022-11-22T20:06:51.511Z,49.20
2022-11-22T20:09:21.980Z,49.80
2022-11-22T20:12:02.100Z,48.40
2022-11-22T20:14:33.069Z,47.40
2022-11-22T20:17:03.832Z,48.00
2022-11-22T20:19:34.690Z,50.30
2022-11-22T20:22:06.238Z,53.00
2022-11-22T20:24:36.393Z,45.90
2022-11-22T20:27:09.271Z,49.90
2022-11-22T20:29:40.242Z,44.00
2022-11-22T20:32:14.243Z,52.00
2022-11-22T20:34:44.620Z,48.50
2022-11-22T20:37:19.646Z,49.10
2022-11-22T20:39:50.632Z,50.60
2022-11-22T20:42:34.130Z,46.90
2022-11-22T20:45:08.268Z,46.60
2022-11-22T20:47:42.051Z,45.90
2022-11-22T20:50:12.324Z,43.80
2022-11-22T20:52:43.932Z,50.00
2022-11-22T20:55:22.551Z,47.00
2022-11-22T20:57:55.951Z,49.60
2022-11-22T21:00:26.240Z,47.70
2022-11-22T21:02:58.741Z,40.00
2022-11-22T21:05:28.653Z,54.00
2022-11-22T21:08:02.423Z,50.90
2022-11-22T21:10:34.222Z,50.50
2022-11-22T21:13:04.355Z,47.10
2022-11-22T21:15:34.402Z,47.10
2022-11-22T21:18:24.031Z,40.70
2022-11-22T21:20:54.970Z,47.60
2022-11-22T21:23:27.072Z,45.80
2022-11-22T21:25:57.421Z,46.10
2022-11-22T21:28:30.238Z,45.00
2022-11-22T21:31:00.059Z,42.80
2022-11-22T21:33:33.253Z,38.30
2022-11-22T21:36:04.911Z,44.70
2022-11-22T21:38:35.867Z,40.50
2022-11-22T21:41:32.202Z,44.60
2022-11-22T21:43:57.592Z,37.90
2022-11-22T21:46:27.610Z,38.30
2022-11-22T21:48:57.960Z,41.50
2022-11-22T21:51:28.199Z,36.40
2022-11-22T21:54:02.483Z,40.80
2022-11-22T21:56:32.280Z,36.00
2022-11-22T21:59:02.240Z,43.60
2022-11-22T22:01:33.067Z,38.20
2022-11-22T22:04:04.212Z,41.40
2022-11-22T22:06:34.260Z,37.70
2022-11-22T22:09:04.630Z,39.40
2022-11-22T22:11:34.639Z,39.80
2022-11-22T22:14:04.702Z,37.90
2022-11-22T22:16:34.760Z,38.60
2022-11-22T22:19:09.425Z,38.80
2022-11-22T22:21:39.530Z,37.70
2022-11-22T22:24:13.462Z,38.10
2022-11-22T22:29:12.469Z,37.20
2022-11-22T22:31:42.408Z,36.10
2022-11-22T22:34:15.311Z,37.70
2022-11-22T22:36:45.381Z,32.00
2022-11-22T22:39:15.421Z,40.10
2022-11-22T22:41:45.429Z,40.40
2022-11-22T22:44:15.441Z,32.50
2022-11-22T22:46:45.464Z,37.20
2022-11-22T22:49:16.814Z,37.00
2022-11-22T22:51:46.791Z,39.40
2022-11-22T22:54:16.721Z,37.90
2022-11-22T22:56:49.272Z,35.30
2022-11-22T22:59:19.541Z,39.60
2022-11-22T23:01:49.529Z,40.80
2022-11-22T23:04:19.450Z,39.70
2022-11-22T23:06:49.578Z,40.10
2022-11-22T23:09:19.939Z,37.70
2022-11-22T23:12:07.560Z,41.70
2022-11-22T23:14:39.261Z,34.60
2022-11-22T23:17:09.650Z,39.50
2022-11-22T23:19:39.740Z,41.50
2022-11-22T23:22:09.520Z,39.90
2022-11-22T23:24:39.449Z,39.00
2022-11-22T23:27:09.309Z,42.40
2022-11-22T23:29:39.660Z,44.20
2022-11-22T23:32:12.338Z,37.50
2022-11-22T23:34:45.138Z,43.00
2022-11-22T23:37:15.608Z,42.70
2022-11-22T23:39:45.370Z,43.20
2022-11-22T23:42:18.503Z,44.10
2022-11-22T23:44:48.519Z,43.30
2022-11-22T23:47:18.680Z,46.10
2022-11-22T23:49:48.630Z,48.00
2022-11-22T23:52:19.160Z,44.60
2022-11-22T23:54:49.401Z,49.30
2022-11-22T23:57:19.325Z,51.40
2022-11-22T23:59:49.390Z,48.20
